sensor_id;sensor_type;location;lat;lon;timestamp;P1;durP1;ratioP1;P2;durP2;ratioP2
8102;SDS011;4094;49.948;11.574;2024-02-15T00:00:44;9.50;;;9.00;;
8102;SDS011;4094;49.948;11.574;2024-02-15T00:03:33;9.33;;;8.80;;
8102;SDS011;4094;49.948;11.574;2024-02-15T00:06:23;9.53;;;8.83;;
8102;SDS011;4094;49.948;11.574;2024-02-15T00:09:12;8.83;;;8.33;;
8102;SDS011;4094;49.948;11.574;2024-02-15T00:12:03;9.03;;;8.43;;
8102;SDS011;4094;49.948;11.574;2024-02-15T00:14:53;8.90;;;8.40;;
8102;SDS011;4094;49.948;11.574;2024-02-15T00:17:46;8.90;;;8.40;;
8102;SDS011;4094;49.948;11.574;2024-02-15T00:20:35;9.60;;;9.00;;
8102;SDS011;4094;49.948;11.574;2024-02-15T00:23:26;8.87;;;8.27;;
8102;SDS011;4094;49.948;11.574;2024-02-15T00:26:15;8.47;;;7.97;;
8102;SDS011;4094;49.948;11.574;2024-02-15T00:29:05;8.43;;;7.93;;
8102;SDS011;4094;49.948;11.574;2024-02-15T00:31:55;8.57;;;8.07;;
8102;SDS011;4094;49.948;11.574;2024-02-15T00:34:45;8.23;;;7.73;;
8102;SDS011;4094;49.948;11.574;2024-02-15T00:37:34;8.20;;;7.80;;
8102;SDS011;4094;49.948;11.574;2024-02-15T00:40:23;7.93;;;7.53;;
8102;SDS011;4094;49.948;11.574;2024-02-15T00:43:13;9.00;;;8.40;;
8102;SDS011;4094;49.948;11.574;2024-02-15T00:46:03;7.87;;;7.47;;
8102;SDS011;4094;49.948;11.574;2024-02-15T00:48:52;7.83;;;7.43;;
8102;SDS011;4094;49.948;11.574;2024-02-15T00:51:42;7.47;;;7.07;;
8102;SDS011;4094;49.948;11.574;2024-02-15T00:54:31;7.97;;;7.57;;
8102;SDS011;4094;49.948;11.574;2024-02-15T00:57:20;7.87;;;7.47;;
8102;SDS011;4094;49.948;11.574;2024-02-15T01:00:09;7.70;;;7.30;;
8102;SDS011;4094;49.948;11.574;2024-02-15T01:03:01;8.03;;;7.63;;
8102;SDS011;4094;49.948;11.574;2024-02-15T01:05:51;8.03;;;7.47;;
8102;SDS011;4094;49.948;11.574;2024-02-15T01:08:40;7.70;;;7.30;;
8102;SDS011;4094;49.948;11.574;2024-02-15T01:11:29;8.00;;;7.50;;
8102;SDS011;4094;49.948;11.574;2024-02-15T01:14:20;7.87;;;7.47;;
8102;SDS011;4094;49.948;11.574;2024-02-15T01:17:09;8.03;;;7.63;;
8102;SDS011;4094;49.948;11.574;2024-02-15T01:19:59;7.83;;;7.40;;
8102;SDS011;4094;49.948;11.574;2024-02-15T01:22:49;7.83;;;7.33;;
8102;SDS011;4094;49.948;11.574;2024-02-15T01:25:39;7.93;;;7.43;;
8102;SDS011;4094;49.948;11.574;2024-02-15T01:28:28;8.60;;;8.03;;
8102;SDS011;4094;49.948;11.574;2024-02-15T01:31:17;8.10;;;7.70;;
8102;SDS011;4094;49.948;11.574;2024-02-15T01:34:06;9.03;;;8.43;;
8102;SDS011;4094;49.948;11.574;2024-02-15T01:36:58;8.67;;;8.10;;
8102;SDS011;4094;49.948;11.574;2024-02-15T01:39:47;8.53;;;8.03;;
8102;SDS011;4094;49.948;11.574;2024-02-15T01:42:37;8.70;;;8.00;;
8102;SDS011;4094;49.948;11.574;2024-02-15T01:45:26;8.80;;;8.30;;
8102;SDS011;4094;49.948;11.574;2024-02-15T01:48:15;8.10;;;7.70;;
8102;SDS011;4094;49.948;11.574;2024-02-15T01:51:05;8.63;;;8.13;;
8102;SDS011;4094;49.948;11.574;2024-02-15T01:53:57;9.03;;;8.53;;
8102;SDS011;4094;49.948;11.574;2024-02-15T01:56:46;9.17;;;8.60;;
8102;SDS011;4094;49.948;11.574;2024-02-15T01:59:36;9.20;;;8.63;;
8102;SDS011;4094;49.948;11.574;2024-02-15T02:02:26;9.27;;;8.77;;
8102;SDS011;4094;49.948;11.574;2024-02-15T02:05:21;9.93;;;9.33;;
8102;SDS011;4094;49.948;11.574;2024-02-15T02:08:10;8.20;;;7.80;;
8102;SDS011;4094;49.948;11.574;2024-02-15T02:11:00;9.43;;;8.93;;
8102;SDS011;4094;49.948;11.574;2024-02-15T02:13:49;9.17;;;8.67;;
8102;SDS011;4094;49.948;11.574;2024-02-15T02:16:39;9.97;;;9.27;;
8102;SDS011;4094;49.948;11.574;2024-02-15T02:19:28;10.27;;;9.50;;
8102;SDS011;4094;49.948;11.574;2024-02-15T02:22:18;9.87;;;9.27;;
8102;SDS011;4094;49.948;11.574;2024-02-15T02:25:09;9.93;;;9.33;;
8102;SDS011;4094;49.948;11.574;2024-02-15T02:27:58;10.43;;;9.63;;
8102;SDS011;4094;49.948;11.574;2024-02-15T02:30:48;10.47;;;9.70;;
8102;SDS011;4094;49.948;11.574;2024-02-15T02:33:38;11.00;;;10.10;;
8102;SDS011;4094;49.948;11.574;2024-02-15T02:36:28;10.73;;;9.93;;
8102;SDS011;4094;49.948;11.574;2024-02-15T02:39:18;10.80;;;10.00;;
8102;SDS011;4094;49.948;11.574;2024-02-15T02:42:09;10.83;;;10.10;;
8102;SDS011;4094;49.948;11.574;2024-02-15T02:44:58;10.37;;;9.67;;
8102;SDS011;4094;49.948;11.574;2024-02-15T02:47:48;10.60;;;9.90;;
8102;SDS011;4094;49.948;11.574;2024-02-15T02:50:41;11.17;;;10.27;;
8102;SDS011;4094;49.948;11.574;2024-02-15T02:53:30;11.87;;;11.00;;
8102;SDS011;4094;49.948;11.574;2024-02-15T02:56:19;11.63;;;10.80;;
8102;SDS011;4094;49.948;11.574;2024-02-15T02:59:09;11.17;;;10.20;;
8102;SDS011;4094;49.948;11.574;2024-02-15T03:02:00;10.83;;;10.13;;
8102;SDS011;4094;49.948;11.574;2024-02-15T03:04:51;10.13;;;9.53;;
8102;SDS011;4094;49.948;11.574;2024-02-15T03:07:41;10.10;;;9.50;;
8102;SDS011;4094;49.948;11.574;2024-02-15T03:10:30;9.97;;;9.27;;
8102;SDS011;4094;49.948;11.574;2024-02-15T03:13:21;9.63;;;9.03;;
8102;SDS011;4094;49.948;11.574;2024-02-15T03:16:12;9.90;;;9.40;;
8102;SDS011;4094;49.948;11.574;2024-02-15T03:19:01;9.57;;;9.07;;
8102;SDS011;4094;49.948;11.574;2024-02-15T03:21:51;9.30;;;8.80;;
8102;SDS011;4094;49.948;11.574;2024-02-15T03:24:40;9.27;;;8.67;;
8102;SDS011;4094;49.948;11.574;2024-02-15T03:27:29;8.97;;;8.47;;
8102;SDS011;4094;49.948;11.574;2024-02-15T03:30:19;9.33;;;8.83;;
8102;SDS011;4094;49.948;11.574;2024-02-15T03:33:10;9.33;;;8.83;;
8102;SDS011;4094;49.948;11.574;2024-02-15T03:36:00;9.00;;;8.50;;
8102;SDS011;4094;49.948;11.574;2024-02-15T03:38:51;9.23;;;8.67;;
8102;SDS011;4094;49.948;11.574;2024-02-15T03:41:41;9.23;;;8.70;;
8102;SDS011;4094;49.948;11.574;2024-02-15T03:44:33;9.20;;;8.70;;
8102;SDS011;4094;49.948;11.574;2024-02-15T03:47:22;9.23;;;8.73;;
8102;SDS011;4094;49.948;11.574;2024-02-15T03:50:12;9.43;;;8.83;;
8102;SDS011;4094;49.948;11.574;2024-02-15T03:53:03;9.47;;;8.97;;
8102;SDS011;4094;49.948;11.574;2024-02-15T03:55:55;9.63;;;9.07;;
8102;SDS011;4094;49.948;11.574;2024-02-15T03:58:44;10.50;;;9.90;;
8102;SDS011;4094;49.948;11.574;2024-02-15T04:01:33;9.40;;;8.80;;
8102;SDS011;4094;49.948;11.574;2024-02-15T04:04:23;10.20;;;9.50;;
8102;SDS011;4094;49.948;11.574;2024-02-15T04:07:15;10.40;;;9.80;;
8102;SDS011;4094;49.948;11.574;2024-02-15T04:10:05;10.40;;;9.73;;
8102;SDS011;4094;49.948;11.574;2024-02-15T04:13:08;10.23;;;9.53;;
8102;SDS011;4094;49.948;11.574;2024-02-15T04:15:58;10.93;;;10.23;;
8102;SDS011;4094;49.948;11.574;2024-02-15T04:18:47;10.80;;;10.10;;
8102;SDS011;4094;49.948;11.574;2024-02-15T04:21:36;10.63;;;9.93;;
8102;SDS011;4094;49.948;11.574;2024-02-15T04:24:27;10.30;;;9.70;;
8102;SDS011;4094;49.948;11.574;2024-02-15T04:27:17;11.23;;;10.43;;
8102;SDS011;4094;49.948;11.574;2024-02-15T04:30:08;11.20;;;10.43;;
8102;SDS011;4094;49.948;11.574;2024-02-15T04:32:58;11.77;;;10.97;;
8102;SDS011;4094;49.948;11.574;2024-02-15T04:35:48;11.23;;;10.33;;
8102;SDS011;4094;49.948;11.574;2024-02-15T04:38:38;11.17;;;10.43;;
8102;SDS011;4094;49.948;11.574;2024-02-15T04:41:29;11.07;;;10.33;;
8102;SDS011;4094;49.948;11.574;2024-02-15T04:44:19;11.50;;;10.70;;
8102;SDS011;4094;49.948;11.574;2024-02-15T04:47:08;11.53;;;10.60;;
8102;SDS011;4094;49.948;11.574;2024-02-15T04:49:59;12.57;;;11.67;;
8102;SDS011;4094;49.948;11.574;2024-02-15T04:52:49;11.77;;;10.87;;
8102;SDS011;4094;49.948;11.574;2024-02-15T04:55:38;11.63;;;10.77;;
8102;SDS011;4094;49.948;11.574;2024-02-15T04:58:29;11.57;;;10.77;;
8102;SDS011;4094;49.948;11.574;2024-02-15T05:01:18;12.00;;;11.20;;
8102;SDS011;4094;49.948;11.574;2024-02-15T05:04:07;12.00;;;11.20;;
8102;SDS011;4094;49.948;11.574;2024-02-15T05:06:57;11.67;;;10.77;;
8102;SDS011;4094;49.948;11.574;2024-02-15T05:09:46;12.57;;;11.57;;
8102;SDS011;4094;49.948;11.574;2024-02-15T05:12:36;12.57;;;11.63;;
8102;SDS011;4094;49.948;11.574;2024-02-15T05:15:28;11.53;;;10.73;;
8102;SDS011;4094;49.948;11.574;2024-02-15T05:18:18;11.50;;;10.70;;
8102;SDS011;4094;49.948;11.574;2024-02-15T05:21:07;11.33;;;10.53;;
8102;SDS011;4094;49.948;11.574;2024-02-15T05:23:57;12.80;;;11.97;;
8102;SDS011;4094;49.948;11.574;2024-02-15T05:26:46;13.00;;;12.10;;
8102;SDS011;4094;49.948;11.574;2024-02-15T05:29:36;11.87;;;10.97;;
8102;SDS011;4094;49.948;11.574;2024-02-15T05:32:28;12.33;;;11.53;;
8102;SDS011;4094;49.948;11.574;2024-02-15T05:35:17;13.07;;;12.10;;
8102;SDS011;4094;49.948;11.574;2024-02-15T05:38:06;12.43;;;11.50;;
8102;SDS011;4094;49.948;11.574;2024-02-15T05:40:55;12.87;;;11.87;;
8102;SDS011;4094;49.948;11.574;2024-02-15T05:43:45;13.63;;;12.63;;
8102;SDS011;4094;49.948;11.574;2024-02-15T05:46:35;12.83;;;11.87;;
8102;SDS011;4094;49.948;11.574;2024-02-15T05:49:28;12.60;;;11.60;;
8102;SDS011;4094;49.948;11.574;2024-02-15T05:52:17;12.30;;;11.40;;
8102;SDS011;4094;49.948;11.574;2024-02-15T05:55:08;15.90;;;14.53;;
8102;SDS011;4094;49.948;11.574;2024-02-15T05:57:57;14.13;;;12.73;;
8102;SDS011;4094;49.948;11.574;2024-02-15T06:00:46;13.83;;;12.73;;
8102;SDS011;4094;49.948;11.574;2024-02-15T06:03:37;13.47;;;12.10;;
8102;SDS011;4094;49.948;11.574;2024-02-15T06:06:29;12.33;;;11.43;;
8102;SDS011;4094;49.948;11.574;2024-02-15T06:09:19;12.63;;;11.60;;
8102;SDS011;4094;49.948;11.574;2024-02-15T06:12:11;12.57;;;11.57;;
8102;SDS011;4094;49.948;11.574;2024-02-15T06:15:03;12.43;;;11.53;;
8102;SDS011;4094;49.948;11.574;2024-02-15T06:17:52;12.97;;;12.07;;
8102;SDS011;4094;49.948;11.574;2024-02-15T06:20:42;13.03;;;11.90;;
8102;SDS011;4094;49.948;11.574;2024-02-15T06:23:34;12.30;;;11.37;;
8102;SDS011;4094;49.948;11.574;2024-02-15T06:26:24;12.20;;;11.30;;
8102;SDS011;4094;49.948;11.574;2024-02-15T06:29:14;13.20;;;12.10;;
8102;SDS011;4094;49.948;11.574;2024-02-15T06:32:21;12.50;;;11.60;;
8102;SDS011;4094;49.948;11.574;2024-02-15T06:35:27;12.77;;;11.83;;
8102;SDS011;4094;49.948;11.574;2024-02-15T06:38:35;11.90;;;11.00;;
8102;SDS011;4094;49.948;11.574;2024-02-15T06:41:42;12.90;;;11.80;;
8102;SDS011;4094;49.948;11.574;2024-02-15T06:44:32;12.57;;;11.60;;
8102;SDS011;4094;49.948;11.574;2024-02-15T06:47:22;12.37;;;11.47;;
8102;SDS011;4094;49.948;11.574;2024-02-15T06:50:12;11.80;;;10.90;;
8102;SDS011;4094;49.948;11.574;2024-02-15T06:53:02;11.80;;;11.00;;
8102;SDS011;4094;49.948;11.574;2024-02-15T06:55:53;11.70;;;10.80;;
8102;SDS011;4094;49.948;11.574;2024-02-15T06:58:42;12.47;;;11.40;;
8102;SDS011;4094;49.948;11.574;2024-02-15T07:01:31;12.67;;;11.67;;
8102;SDS011;4094;49.948;11.574;2024-02-15T07:04:21;11.90;;;10.80;;
8102;SDS011;4094;49.948;11.574;2024-02-15T07:07:12;13.17;;;12.07;;
8102;SDS011;4094;49.948;11.574;2024-02-15T07:10:05;12.27;;;11.27;;
8102;SDS011;4094;49.948;11.574;2024-02-15T07:12:55;12.23;;;11.33;;
8102;SDS011;4094;49.948;11.574;2024-02-15T07:15:45;11.70;;;10.90;;
8102;SDS011;4094;49.948;11.574;2024-02-15T07:18:34;12.73;;;11.50;;
8102;SDS011;4094;49.948;11.574;2024-02-15T07:21:23;12.13;;;11.10;;
8102;SDS011;4094;49.948;11.574;2024-02-15T07:24:14;12.20;;;11.20;;
8102;SDS011;4094;49.948;11.574;2024-02-15T07:27:03;13.57;;;12.00;;
8102;SDS011;4094;49.948;11.574;2024-02-15T07:29:54;13.50;;;12.27;;
8102;SDS011;4094;49.948;11.574;2024-02-15T07:32:44;13.50;;;12.53;;
8102;SDS011;4094;49.948;11.574;2024-02-15T07:35:34;14.30;;;13.10;;
8102;SDS011;4094;49.948;11.574;2024-02-15T07:38:24;13.40;;;12.20;;
8102;SDS011;4094;49.948;11.574;2024-02-15T07:41:13;12.53;;;11.43;;
8102;SDS011;4094;49.948;11.574;2024-02-15T07:44:02;12.10;;;11.03;;
8102;SDS011;4094;49.948;11.574;2024-02-15T07:46:55;13.23;;;11.90;;
8102;SDS011;4094;49.948;11.574;2024-02-15T07:49:44;13.17;;;12.07;;
8102;SDS011;4094;49.948;11.574;2024-02-15T07:52:34;13.90;;;12.33;;
8102;SDS011;4094;49.948;11.574;2024-02-15T07:55:23;15.77;;;11.97;;
8102;SDS011;4094;49.948;11.574;2024-02-15T07:58:13;14.70;;;13.17;;
8102;SDS011;4094;49.948;11.574;2024-02-15T08:01:03;12.83;;;11.77;;
8102;SDS011;4094;49.948;11.574;2024-02-15T08:03:54;11.40;;;10.37;;
8102;SDS011;4094;49.948;11.574;2024-02-15T08:06:43;11.37;;;10.27;;
8102;SDS011;4094;49.948;11.574;2024-02-15T08:09:33;10.67;;;9.57;;
8102;SDS011;4094;49.948;11.574;2024-02-15T08:12:26;9.90;;;9.20;;
8102;SDS011;4094;49.948;11.574;2024-02-15T08:15:15;10.03;;;9.13;;
8102;SDS011;4094;49.948;11.574;2024-02-15T08:18:04;10.30;;;9.50;;
8102;SDS011;4094;49.948;11.574;2024-02-15T08:20:58;11.07;;;9.97;;
8102;SDS011;4094;49.948;11.574;2024-02-15T08:23:47;10.17;;;9.33;;
8102;SDS011;4094;49.948;11.574;2024-02-15T08:26:37;10.30;;;9.40;;
8102;SDS011;4094;49.948;11.574;2024-02-15T08:29:27;11.03;;;10.13;;
8102;SDS011;4094;49.948;11.574;2024-02-15T08:32:16;10.77;;;9.77;;
8102;SDS011;4094;49.948;11.574;2024-02-15T08:35:06;10.57;;;9.77;;
8102;SDS011;4094;49.948;11.574;2024-02-15T08:37:58;10.67;;;9.77;;
8102;SDS011;4094;49.948;11.574;2024-02-15T08:40:47;9.80;;;9.00;;
8102;SDS011;4094;49.948;11.574;2024-02-15T08:43:36;10.30;;;9.40;;
8102;SDS011;4094;49.948;11.574;2024-02-15T08:46:27;10.67;;;9.77;;
8102;SDS011;4094;49.948;11.574;2024-02-15T08:49:16;9.97;;;9.07;;
8102;SDS011;4094;49.948;11.574;2024-02-15T08:52:06;10.33;;;9.50;;
8102;SDS011;4094;49.948;11.574;2024-02-15T08:54:57;9.67;;;8.93;;
8102;SDS011;4094;49.948;11.574;2024-02-15T08:57:48;9.27;;;8.47;;
8102;SDS011;4094;49.948;11.574;2024-02-15T09:00:37;10.90;;;9.90;;
8102;SDS011;4094;49.948;11.574;2024-02-15T09:03:32;9.10;;;8.40;;
8102;SDS011;4094;49.948;11.574;2024-02-15T09:06:21;9.43;;;8.53;;
8102;SDS011;4094;49.948;11.574;2024-02-15T09:09:11;9.80;;;9.00;;
8102;SDS011;4094;49.948;11.574;2024-02-15T09:12:02;8.93;;;8.23;;
8102;SDS011;4094;49.948;11.574;2024-02-15T09:14:53;9.77;;;8.87;;
8102;SDS011;4094;49.948;11.574;2024-02-15T09:17:43;9.90;;;9.00;;
8102;SDS011;4094;49.948;11.574;2024-02-15T09:20:34;9.53;;;8.73;;
8102;SDS011;4094;49.948;11.574;2024-02-15T09:23:24;9.60;;;8.87;;
8102;SDS011;4094;49.948;11.574;2024-02-15T09:26:13;9.30;;;8.57;;
8102;SDS011;4094;49.948;11.574;2024-02-15T09:29:04;9.57;;;8.77;;
8102;SDS011;4094;49.948;11.574;2024-02-15T09:31:55;9.00;;;8.30;;
8102;SDS011;4094;49.948;11.574;2024-02-15T09:34:44;9.17;;;8.47;;
8102;SDS011;4094;49.948;11.574;2024-02-15T09:37:34;8.73;;;8.03;;
8102;SDS011;4094;49.948;11.574;2024-02-15T09:40:23;9.37;;;8.60;;
8102;SDS011;4094;49.948;11.574;2024-02-15T09:43:14;8.70;;;8.00;;
8102;SDS011;4094;49.948;11.574;2024-02-15T09:46:04;9.17;;;8.37;;
8102;SDS011;4094;49.948;11.574;2024-02-15T09:48:55;9.30;;;8.40;;
8102;SDS011;4094;49.948;11.574;2024-02-15T09:51:46;8.90;;;8.20;;
8102;SDS011;4094;49.948;11.574;2024-02-15T09:54:38;9.40;;;8.60;;
8102;SDS011;4094;49.948;11.574;2024-02-15T09:57:30;8.60;;;8.00;;
8102;SDS011;4094;49.948;11.574;2024-02-15T10:00:20;8.77;;;8.10;;
8102;SDS011;4094;49.948;11.574;2024-02-15T10:03:12;8.10;;;7.47;;
8102;SDS011;4094;49.948;11.574;2024-02-15T10:06:07;8.30;;;7.63;;
8102;SDS011;4094;49.948;11.574;2024-02-15T10:12:13;8.53;;;7.83;;
8102;SDS011;4094;49.948;11.574;2024-02-15T10:15:03;7.90;;;7.27;;
8102;SDS011;4094;49.948;11.574;2024-02-15T10:17:55;7.50;;;6.90;;
8102;SDS011;4094;49.948;11.574;2024-02-15T10:20:47;8.17;;;7.47;;
8102;SDS011;4094;49.948;11.574;2024-02-15T10:23:46;8.17;;;7.40;;
8102;SDS011;4094;49.948;11.574;2024-02-15T10:26:35;8.00;;;7.50;;
8102;SDS011;4094;49.948;11.574;2024-02-15T10:29:25;7.40;;;6.80;;
8102;SDS011;4094;49.948;11.574;2024-02-15T10:32:14;7.20;;;6.70;;
8102;SDS011;4094;49.948;11.574;2024-02-15T10:35:03;7.37;;;6.77;;
8102;SDS011;4094;49.948;11.574;2024-02-15T10:38:04;7.00;;;6.40;;
8102;SDS011;4094;49.948;11.574;2024-02-15T10:41:02;6.77;;;6.20;;
8102;SDS011;4094;49.948;11.574;2024-02-15T10:43:53;7.40;;;6.70;;
8102;SDS011;4094;49.948;11.574;2024-02-15T10:46:42;7.40;;;6.90;;
8102;SDS011;4094;49.948;11.574;2024-02-15T10:49:33;7.07;;;6.57;;
8102;SDS011;4094;49.948;11.574;2024-02-15T10:52:25;6.73;;;6.23;;
8102;SDS011;4094;49.948;11.574;2024-02-15T10:55:24;7.43;;;6.80;;
8102;SDS011;4094;49.948;11.574;2024-02-15T10:58:21;6.70;;;6.20;;
8102;SDS011;4094;49.948;11.574;2024-02-15T11:01:15;6.93;;;6.33;;
8102;SDS011;4094;49.948;11.574;2024-02-15T11:04:07;6.67;;;6.07;;
8102;SDS011;4094;49.948;11.574;2024-02-15T11:06:57;7.00;;;5.90;;
8102;SDS011;4094;49.948;11.574;2024-02-15T11:09:49;6.73;;;6.23;;
8102;SDS011;4094;49.948;11.574;2024-02-15T11:12:40;6.63;;;6.07;;
8102;SDS011;4094;49.948;11.574;2024-02-15T11:15:39;5.93;;;5.43;;
8102;SDS011;4094;49.948;11.574;2024-02-15T11:18:43;5.93;;;5.40;;
8102;SDS011;4094;49.948;11.574;2024-02-15T11:24:48;5.77;;;5.20;;
8102;SDS011;4094;49.948;11.574;2024-02-15T11:27:40;5.67;;;4.90;;
8102;SDS011;4094;49.948;11.574;2024-02-15T11:30:31;5.23;;;4.73;;
8102;SDS011;4094;49.948;11.574;2024-02-15T11:33:25;5.00;;;4.60;;
8102;SDS011;4094;49.948;11.574;2024-02-15T11:36:17;5.07;;;4.67;;
8102;SDS011;4094;49.948;11.574;2024-02-15T11:42:29;4.73;;;4.33;;
8102;SDS011;4094;49.948;11.574;2024-02-15T11:45:20;4.80;;;4.40;;
8102;SDS011;4094;49.948;11.574;2024-02-15T11:48:11;6.00;;;4.80;;
8102;SDS011;4094;49.948;11.574;2024-02-15T11:51:01;5.50;;;4.40;;
8102;SDS011;4094;49.948;11.574;2024-02-15T11:54:04;5.47;;;4.40;;
8102;SDS011;4094;49.948;11.574;2024-02-15T11:56:55;4.60;;;4.20;;
8102;SDS011;4094;49.948;11.574;2024-02-15T11:59:58;5.93;;;4.27;;
8102;SDS011;4094;49.948;11.574;2024-02-15T12:03:03;4.23;;;3.93;;
8102;SDS011;4094;49.948;11.574;2024-02-15T12:06:10;4.60;;;4.20;;
8102;SDS011;4094;49.948;11.574;2024-02-15T12:09:17;5.23;;;4.73;;
8102;SDS011;4094;49.948;11.574;2024-02-15T12:12:26;5.07;;;4.57;;
8102;SDS011;4094;49.948;11.574;2024-02-15T12:15:32;5.87;;;4.40;;
8102;SDS011;4094;49.948;11.574;2024-02-15T12:18:40;4.80;;;3.97;;
8102;SDS011;4094;49.948;11.574;2024-02-15T12:21:32;4.97;;;4.47;;
8102;SDS011;4094;49.948;11.574;2024-02-15T12:24:21;4.97;;;4.33;;
8102;SDS011;4094;49.948;11.574;2024-02-15T12:27:14;3.80;;;3.50;;
8102;SDS011;4094;49.948;11.574;2024-02-15T12:30:04;4.13;;;3.23;;
8102;SDS011;4094;49.948;11.574;2024-02-15T12:33:08;8.27;;;3.30;;
8102;SDS011;4094;49.948;11.574;2024-02-15T12:36:07;3.50;;;3.20;;
8102;SDS011;4094;49.948;11.574;2024-02-15T12:39:00;4.10;;;3.23;;
8102;SDS011;4094;49.948;11.574;2024-02-15T12:41:51;3.70;;;3.40;;
8102;SDS011;4094;49.948;11.574;2024-02-15T12:44:44;3.93;;;3.63;;
8102;SDS011;4094;49.948;11.574;2024-02-15T12:47:34;3.43;;;3.10;;
8102;SDS011;4094;49.948;11.574;2024-02-15T12:50:27;3.10;;;2.80;;
8102;SDS011;4094;49.948;11.574;2024-02-15T12:53:22;4.07;;;2.80;;
8102;SDS011;4094;49.948;11.574;2024-02-15T12:56:19;3.20;;;2.57;;
8102;SDS011;4094;49.948;11.574;2024-02-15T12:59:09;5.17;;;3.00;;
8102;SDS011;4094;49.948;11.574;2024-02-15T13:01:59;3.30;;;3.00;;
8102;SDS011;4094;49.948;11.574;2024-02-15T13:04:48;3.47;;;3.00;;
8102;SDS011;4094;49.948;11.574;2024-02-15T13:07:37;3.43;;;3.10;;
8102;SDS011;4094;49.948;11.574;2024-02-15T13:10:28;3.70;;;3.40;;
8102;SDS011;4094;49.948;11.574;2024-02-15T13:13:19;3.70;;;3.40;;
8102;SDS011;4094;49.948;11.574;2024-02-15T13:16:08;5.20;;;3.73;;
8102;SDS011;4094;49.948;11.574;2024-02-15T13:18:58;5.23;;;3.80;;
8102;SDS011;4094;49.948;11.574;2024-02-15T13:21:47;5.83;;;4.20;;
8102;SDS011;4094;49.948;11.574;2024-02-15T13:24:40;4.10;;;3.70;;
8102;SDS011;4094;49.948;11.574;2024-02-15T13:27:31;4.30;;;3.77;;
8102;SDS011;4094;49.948;11.574;2024-02-15T13:30:20;5.00;;;4.13;;
8102;SDS011;4094;49.948;11.574;2024-02-15T13:33:11;4.33;;;3.97;;
8102;SDS011;4094;49.948;11.574;2024-02-15T13:36:01;4.53;;;4.13;;
8102;SDS011;4094;49.948;11.574;2024-02-15T13:38:51;4.03;;;3.63;;
8102;SDS011;4094;49.948;11.574;2024-02-15T13:41:40;4.30;;;3.90;;
8102;SDS011;4094;49.948;11.574;2024-02-15T13:44:31;4.67;;;4.23;;
8102;SDS011;4094;49.948;11.574;2024-02-15T13:47:20;4.70;;;4.23;;
8102;SDS011;4094;49.948;11.574;2024-02-15T13:50:09;4.70;;;4.30;;
8102;SDS011;4094;49.948;11.574;2024-02-15T13:53:01;5.03;;;4.63;;
8102;SDS011;4094;49.948;11.574;2024-02-15T13:55:51;3.83;;;3.63;;
8102;SDS011;4094;49.948;11.574;2024-02-15T13:58:41;4.90;;;4.07;;
8102;SDS011;4094;49.948;11.574;2024-02-15T14:01:31;4.07;;;3.87;;
8102;SDS011;4094;49.948;11.574;2024-02-15T14:04:21;4.50;;;4.13;;
8102;SDS011;4094;49.948;11.574;2024-02-15T14:07:11;4.57;;;4.30;;
8102;SDS011;4094;49.948;11.574;2024-02-15T14:10:00;4.27;;;3.87;;
8102;SDS011;4094;49.948;11.574;2024-02-15T14:12:50;4.90;;;4.60;;
8102;SDS011;4094;49.948;11.574;2024-02-15T14:15:40;4.90;;;4.60;;
8102;SDS011;4094;49.948;11.574;2024-02-15T14:18:32;5.33;;;4.93;;
8102;SDS011;4094;49.948;11.574;2024-02-15T14:21:23;4.80;;;4.47;;
8102;SDS011;4094;49.948;11.574;2024-02-15T14:24:12;5.40;;;4.90;;
8102;SDS011;4094;49.948;11.574;2024-02-15T14:27:02;5.27;;;4.87;;
8102;SDS011;4094;49.948;11.574;2024-02-15T14:29:51;5.17;;;4.70;;
8102;SDS011;4094;49.948;11.574;2024-02-15T14:33:00;4.63;;;4.33;;
8102;SDS011;4094;49.948;11.574;2024-02-15T14:35:53;5.30;;;4.80;;
8102;SDS011;4094;49.948;11.574;2024-02-15T14:38:43;4.97;;;4.57;;
8102;SDS011;4094;49.948;11.574;2024-02-15T14:41:34;5.30;;;4.90;;
8102;SDS011;4094;49.948;11.574;2024-02-15T14:44:36;5.93;;;5.03;;
8102;SDS011;4094;49.948;11.574;2024-02-15T14:47:26;5.30;;;4.90;;
8102;SDS011;4094;49.948;11.574;2024-02-15T14:50:15;5.63;;;5.13;;
8102;SDS011;4094;49.948;11.574;2024-02-15T14:53:06;5.03;;;4.63;;
8102;SDS011;4094;49.948;11.574;2024-02-15T14:55:55;5.50;;;5.10;;
8102;SDS011;4094;49.948;11.574;2024-02-15T14:58:45;4.97;;;4.67;;
8102;SDS011;4094;49.948;11.574;2024-02-15T15:01:35;5.07;;;4.67;;
8102;SDS011;4094;49.948;11.574;2024-02-15T15:04:24;5.10;;;4.70;;
8102;SDS011;4094;49.948;11.574;2024-02-15T15:07:23;4.97;;;4.57;;
8102;SDS011;4094;49.948;11.574;2024-02-15T15:10:31;5.37;;;4.90;;
8102;SDS011;4094;49.948;11.574;2024-02-15T15:13:37;5.27;;;4.77;;
8102;SDS011;4094;49.948;11.574;2024-02-15T15:16:27;5.00;;;4.57;;
8102;SDS011;4094;49.948;11.574;2024-02-15T15:19:18;4.73;;;4.43;;
8102;SDS011;4094;49.948;11.574;2024-02-15T15:22:07;5.20;;;4.80;;
8102;SDS011;4094;49.948;11.574;2024-02-15T15:24:56;5.07;;;4.63;;
8102;SDS011;4094;49.948;11.574;2024-02-15T15:27:47;6.63;;;5.40;;
8102;SDS011;4094;49.948;11.574;2024-02-15T15:30:38;5.63;;;5.23;;
8102;SDS011;4094;49.948;11.574;2024-02-15T15:33:27;6.70;;;6.10;;
8102;SDS011;4094;49.948;11.574;2024-02-15T15:36:16;7.00;;;6.30;;
8102;SDS011;4094;49.948;11.574;2024-02-15T15:39:07;8.20;;;7.03;;
8102;SDS011;4094;49.948;11.574;2024-02-15T15:41:58;6.30;;;5.70;;
8102;SDS011;4094;49.948;11.574;2024-02-15T15:44:49;5.87;;;5.37;;
8102;SDS011;4094;49.948;11.574;2024-02-15T15:47:38;5.77;;;5.33;;
8102;SDS011;4094;49.948;11.574;2024-02-15T15:50:27;5.50;;;5.10;;
8102;SDS011;4094;49.948;11.574;2024-02-15T15:53:22;5.40;;;4.90;;
8102;SDS011;4094;49.948;11.574;2024-02-15T15:56:11;5.40;;;5.00;;
8102;SDS011;4094;49.948;11.574;2024-02-15T15:59:01;5.70;;;5.13;;
8102;SDS011;4094;49.948;11.574;2024-02-15T16:01:55;11.47;;;5.23;;
8102;SDS011;4094;49.948;11.574;2024-02-15T16:04:44;5.10;;;4.80;;
8102;SDS011;4094;49.948;11.574;2024-02-15T16:07:34;5.50;;;5.00;;
8102;SDS011;4094;49.948;11.574;2024-02-15T16:10:24;5.30;;;4.80;;
8102;SDS011;4094;49.948;11.574;2024-02-15T16:13:16;5.43;;;5.00;;
8102;SDS011;4094;49.948;11.574;2024-02-15T16:16:06;5.90;;;5.33;;
8102;SDS011;4094;49.948;11.574;2024-02-15T16:18:57;6.33;;;4.93;;
8102;SDS011;4094;49.948;11.574;2024-02-15T16:21:47;4.83;;;4.53;;
8102;SDS011;4094;49.948;11.574;2024-02-15T16:24:36;5.17;;;4.70;;
8102;SDS011;4094;49.948;11.574;2024-02-15T16:27:26;5.63;;;5.30;;
8102;SDS011;4094;49.948;11.574;2024-02-15T16:30:15;5.60;;;5.10;;
8102;SDS011;4094;49.948;11.574;2024-02-15T16:33:05;5.77;;;5.47;;
8102;SDS011;4094;49.948;11.574;2024-02-15T16:35:56;5.80;;;5.40;;
8102;SDS011;4094;49.948;11.574;2024-02-15T16:38:45;6.43;;;5.27;;
8102;SDS011;4094;49.948;11.574;2024-02-15T16:41:34;5.97;;;5.40;;
8102;SDS011;4094;49.948;11.574;2024-02-15T16:44:24;5.80;;;5.40;;
8102;SDS011;4094;49.948;11.574;2024-02-15T16:47:13;8.17;;;6.00;;
8102;SDS011;4094;49.948;11.574;2024-02-15T16:50:04;6.03;;;5.53;;
8102;SDS011;4094;49.948;11.574;2024-02-15T16:52:57;6.67;;;6.00;;
8102;SDS011;4094;49.948;11.574;2024-02-15T16:55:46;6.53;;;6.03;;
8102;SDS011;4094;49.948;11.574;2024-02-15T16:58:35;6.00;;;5.50;;
8102;SDS011;4094;49.948;11.574;2024-02-15T17:01:24;6.50;;;6.00;;
8102;SDS011;4094;49.948;11.574;2024-02-15T17:04:14;5.93;;;5.50;;
8102;SDS011;4094;49.948;11.574;2024-02-15T17:07:04;6.17;;;5.57;;
8102;SDS011;4094;49.948;11.574;2024-02-15T17:09:55;6.10;;;5.67;;
8102;SDS011;4094;49.948;11.574;2024-02-15T17:12:44;6.47;;;5.87;;
8102;SDS011;4094;49.948;11.574;2024-02-15T17:15:33;6.60;;;6.10;;
8102;SDS011;4094;49.948;11.574;2024-02-15T17:18:23;6.97;;;5.97;;
8102;SDS011;4094;49.948;11.574;2024-02-15T17:21:14;6.77;;;6.23;;
8102;SDS011;4094;49.948;11.574;2024-02-15T17:24:03;7.33;;;6.63;;
8102;SDS011;4094;49.948;11.574;2024-02-15T17:26:55;7.87;;;6.73;;